Time;durP1;ratioP1;P1;durP2;ratioP2;P2;SDS_P1;SDS_P2;PMS_P1;PMS_P2;Temp;Humidity;BMP_temperature;BMP_pressure;BME280_temperature;BME280_humidity;BME280_pressure;Samples;Min_cycle;Max_cycle;Signal;HPM_P1;HPM_P2
2022/10/26 00:01:35;;;;;;;;;;;;;;;-142.75;100.00;77184.50;5094034;28;20022;-67
2022/10/26 00:04:00;;;;;;;;;;;;;;;-142.75;100.00;77182.53;5093856;28;19968;-66
2022/10/26 00:06:27;;;;;;;;;;;;;;;-142.75;100.00;77168.75;5092609;28;19916;-65
2022/10/26 00:08:54;;;;;;;;;;;;;;;-142.75;100.00;77164.81;5092359;28;19923;-67
2022/10/26 00:11:19;;;;;;;;;;;;;;;-142.75;100.00;77158.91;5093766;28;19965;-67
2022/10/26 00:13:45;;;;;;;;;;;;;;;-142.75;100.00;77153.00;5094558;28;19924;-67
2022/10/26 00:16:15;;;;;;;;;;;;;;;-142.75;100.00;77154.97;5093809;28;19927;-67
2022/10/26 00:18:40;;;;;;;;;;;;;;;-142.75;100.00;77153.00;5093424;28;19920;-66
2022/10/26 00:21:06;;;;;;;;;;;;;;;-142.75;100.00;77151.03;5092195;28;19916;-67
2022/10/26 00:23:32;;;;;;;;;;;;;;;-142.75;100.00;77153.00;5093677;28;19925;-67
2022/10/26 00:25:57;;;;;;;;;;;;;;;-142.75;100.00;77149.06;5093523;28;20503;-67
2022/10/26 00:28:23;;;;;;;;;;;;;;;-142.75;100.00;77145.13;5093330;28;20381;-67
2022/10/26 00:30:48;;;;;;;;;;;;;;;-142.75;100.00;77145.13;5092203;28;20274;-67
2022/10/26 00:33:13;;;;;;;;;;;;;;;-142.75;100.00;77137.25;5093403;28;19916;-66
2022/10/26 00:35:38;;;;;;;;;;;;;;;-142.75;100.00;77131.34;5093356;28;19963;-67
2022/10/26 00:38:04;;;;;;;;;;;;;;;-142.75;100.00;77119.53;5092899;28;19916;-66
2022/10/26 00:40:29;;;;;;;;;;;;;;;-142.75;100.00;77131.34;5093016;28;19920;-67
2022/10/26 00:42:54;;;;;;;;;;;;;;;-142.75;100.00;77125.44;5093736;28;20446;-67
2022/10/26 00:45:23;;;;;;;;;;;;;;;-142.75;100.00;77125.44;5092258;28;20400;-67
2022/10/26 00:48:00;;;;;;;;;;;;;;;-142.75;100.00;77135.28;5092838;28;19922;-67
2022/10/26 00:50:38;;;;;;;;;;;;;;;-142.75;100.00;77133.31;5110741;22;19936;-66
2022/10/26 00:53:04;;;;;;;;;;;;;;;-142.75;100.00;77125.44;5090144;28;19973;-66
2022/10/26 00:55:34;;;;;;;;;;;;;;;-142.75;100.00;77121.50;5092573;28;20326;-66
2022/10/26 00:58:01;;;;;;;;;;;;;;;-142.75;100.00;77109.69;5092790;28;20504;-65
2022/10/26 01:00:26;;;;;;;;;;;;;;;-142.75;100.00;77109.69;5092739;28;19920;-66
2022/10/26 01:02:53;;;;;;;;;;;;;;;-142.75;100.00;77109.69;5092660;28;19923;-66
2022/10/26 01:05:19;;;;;;;;;;;;;;;-142.75;100.00;77105.75;5092756;28;19923;-66
2022/10/26 01:07:45;;;;;;;;;;;;;;;-142.75;100.00;77097.88;5092576;28;20289;-66
2022/10/26 01:10:12;;;;;;;;;;;;;;;-142.75;100.00;77105.75;5092685;28;19927;-66
2022/10/26 01:12:38;;;;;;;;;;;;;;;-142.75;100.00;77105.75;5092891;28;19920;-66
2022/10/26 01:15:03;;;;;;;;;;;;;;;-142.75;100.00;77095.91;5092922;28;20027;-66
2022/10/26 01:17:44;;;;;;;;;;;;;;;-142.75;100.00;77097.88;5092273;28;19961;-66
2022/10/26 01:20:38;;;;;;;;;;;;;;;-142.75;100.00;77097.88;5092119;28;19924;-66
2022/10/26 01:23:03;;;;;;;;;;;;;;;-142.75;100.00;77084.09;5052615;28;19916;-66
2022/10/26 01:25:47;;;;;;;;;;;;;;;-142.75;100.00;77082.13;5092138;28;20369;-66
2022/10/26 01:28:24;;;;;;;;;;;;;;;-142.75;100.00;77070.31;5091838;28;19916;-66
2022/10/26 01:30:50;;;;;;;;;;;;;;;-142.75;100.00;77066.38;5092075;28;19924;-66
2022/10/26 01:33:16;;;;;;;;;;;;;;;-142.75;100.00;77072.28;5092298;28;19923;-66
2022/10/26 01:35:53;;;;;;;;;;;;;;;-142.75;100.00;77086.06;5092188;28;19924;-66
2022/10/26 01:38:34;;;;;;;;;;;;;;;-142.75;100.00;77091.97;5091974;28;19927;-65
2022/10/26 01:41:04;;;;;;;;;;;;;;;-142.75;100.00;77088.03;5092021;28;19920;-66
2022/10/26 01:43:35;;;;;;;;;;;;;;;-142.75;100.00;77090.00;5092387;28;19916;-65
2022/10/26 01:46:02;;;;;;;;;;;;;;;-142.75;100.00;77082.13;5091966;28;20317;-65
2022/10/26 01:48:28;;;;;;;;;;;;;;;-142.75;100.00;77088.03;5091744;28;20289;-66
2022/10/26 01:50:55;;;;;;;;;;;;;;;-142.75;100.00;77080.16;5091542;28;20010;-66
2022/10/26 01:53:20;;;;;;;;;;;;;;;-142.75;100.00;77078.19;5091941;28;19960;-65
2022/10/26 01:55:47;;;;;;;;;;;;;;;-142.75;100.00;77078.19;5091566;28;19966;-66
2022/10/26 01:58:36;;;;;;;;;;;;;;;-142.75;100.00;77068.34;5090620;28;20325;-65
2022/10/26 02:01:20;;;;;;;;;;;;;;;-142.75;100.00;77058.50;5073400;28;19955;-66
2022/10/26 02:03:53;;;;;;;;;;;;;;;-142.75;100.00;77056.53;5091700;28;20299;-67
2022/10/26 02:06:24;;;;;;;;;;;;;;;-142.75;100.00;77056.53;5091162;28;19920;-65
2022/10/26 02:08:55;;;;;;;;;;;;;;;-142.75;100.00;77058.50;5090842;28;19927;-65
2022/10/26 02:11:38;;;;;;;;;;;;;;;-142.75;100.00;77054.56;5091149;28;19973;-65
2022/10/26 02:14:06;;;;;;;;;;;;;;;-142.75;100.00;77054.56;5091862;28;20432;-65
2022/10/26 02:16:50;;;;;;;;;;;;;;;-142.75;100.00;77054.56;5091188;28;20369;-65
2022/10/26 02:19:30;;;;;;;;;;;;;;;-142.75;100.00;77058.50;5091046;28;19922;-65
2022/10/26 02:22:02;;;;;;;;;;;;;;;-142.75;100.00;77056.53;5091125;28;19920;-65
2022/10/26 02:24:28;;;;;;;;;;;;;;;-142.75;100.00;77060.47;5091131;28;19999;-65
2022/10/26 02:26:55;;;;;;;;;;;;;;;-142.75;100.00;77058.50;5090665;28;20012;-65
2022/10/26 02:29:22;;;;;;;;;;;;;;;-142.75;100.00;77058.50;5091220;28;20389;-65
2022/10/26 02:31:49;;;;;;;;;;;;;;;-142.75;100.00;77064.41;5091037;28;19938;-65
2022/10/26 02:34:17;;;;;;;;;;;;;;;-142.75;100.00;77064.41;5090947;28;19924;-65
2022/10/26 02:36:43;;;;;;;;;;;;;;;-142.75;100.00;77052.59;5090573;28;20011;-65
2022/10/26 02:39:10;;;;;;;;;;;;;;;-142.75;100.00;77054.56;5091040;28;19969;-65
2022/10/26 02:41:37;;;;;;;;;;;;;;;-142.75;100.00;77050.63;5076493;28;19932;-65
2022/10/26 02:44:11;;;;;;;;;;;;;;;-142.75;100.00;77046.69;5071405;28;19916;-65
2022/10/26 02:46:37;;;;;;;;;;;;;;;-142.75;100.00;77042.75;5070432;28;19920;-65
2022/10/26 02:49:02;;;;;;;;;;;;;;;-142.75;100.00;77044.72;5070687;28;20087;-66
2022/10/26 02:51:34;;;;;;;;;;;;;;;-142.75;100.00;77038.81;5070485;28;19932;-65
2022/10/26 02:54:09;;;;;;;;;;;;;;;-142.75;100.00;77030.94;5070543;28;20532;-65
2022/10/26 02:56:40;;;;;;;;;;;;;;;-142.75;100.00;77027.00;5070394;28;20416;-65
2022/10/26 02:59:07;;;;;;;;;;;;;;;-142.75;100.00;77027.00;5070681;28;19916;-65
2022/10/26 03:01:33;;;;;;;;;;;;;;;-142.75;100.00;77021.09;5070456;28;19985;-66
2022/10/26 03:03:59;;;;;;;;;;;;;;;-142.75;100.00;77017.16;5070608;28;20389;-65
2022/10/26 03:06:25;;;;;;;;;;;;;;;-142.75;100.00;77013.22;5070534;28;19917;-65
2022/10/26 03:08:50;;;;;;;;;;;;;;;-142.75;100.00;77001.41;5070123;28;19977;-65
2022/10/26 03:11:15;;;;;;;;;;;;;;;-142.75;100.00;76997.47;5070439;28;19951;-65
2022/10/26 03:13:41;;;;;;;;;;;;;;;-142.75;100.00;76999.44;5070889;28;19924;-65
2022/10/26 03:16:06;;;;;;;;;;;;;;;-142.75;100.00;76997.47;5070461;28;20382;-65
2022/10/26 03:18:31;;;;;;;;;;;;;;;-142.75;100.00;76989.59;5069767;28;19923;-66
2022/10/26 03:20:56;;;;;;;;;;;;;;;-142.75;100.00;76991.56;5069663;28;21912;-65
2022/10/26 03:23:21;;;;;;;;;;;;;;;-142.75;100.00;76995.50;5051492;28;19922;-65
2022/10/26 03:25:46;;;;;;;;;;;;;;;-142.75;100.00;76999.44;5069718;28;19928;-65
2022/10/26 03:28:12;;;;;;;;;;;;;;;-142.75;100.00;77015.19;5069301;28;20275;-65
2022/10/26 03:30:37;;;;;;;;;;;;;;;-142.75;100.00;77013.22;5086141;28;20347;-65
2022/10/26 03:33:02;;;;;;;;;;;;;;;-142.75;100.00;77019.13;5089493;28;19916;-66
2022/10/26 03:35:27;;;;;;;;;;;;;;;-142.75;100.00;77019.13;5089603;28;20506;-65
2022/10/26 03:37:53;;;;;;;;;;;;;;;-142.75;100.00;77011.25;5089343;28;19916;-65
2022/10/26 03:40:19;;;;;;;;;;;;;;;-142.75;100.00;77013.22;5089603;28;20365;-65
2022/10/26 03:42:44;;;;;;;;;;;;;;;-142.75;100.00;77007.31;5089462;28;20003;-65
2022/10/26 03:45:09;;;;;;;;;;;;;;;-142.75;100.00;77019.13;5089958;28;20003;-65
2022/10/26 03:47:41;;;;;;;;;;;;;;;-142.75;100.00;77017.16;5089609;28;19916;-65
2022/10/26 03:50:06;;;;;;;;;;;;;;;-142.75;100.00;77015.19;5071048;28;19931;-65
2022/10/26 03:52:31;;;;;;;;;;;;;;;-142.75;100.00;77011.25;5089539;28;19916;-65
2022/10/26 03:54:56;;;;;;;;;;;;;;;-142.75;100.00;77003.38;5089410;28;19916;-65
2022/10/26 03:57:22;;;;;;;;;;;;;;;-142.75;100.00;77003.38;5088873;28;20388;-65
2022/10/26 03:59:47;;;;;;;;;;;;;;;-142.75;100.00;77007.31;5088907;28;19958;-66
2022/10/26 04:02:14;;;;;;;;;;;;;;;-142.75;100.00;77003.38;5088823;28;19950;-65
2022/10/26 04:04:39;;;;;;;;;;;;;;;-142.75;100.00;76999.44;5088719;28;19952;-65
2022/10/26 04:07:04;;;;;;;;;;;;;;;-142.75;100.00;77003.38;5088384;28;20001;-66
2022/10/26 04:09:29;;;;;;;;;;;;;;;-142.75;100.00;77001.41;5088462;28;19955;-65
2022/10/26 04:11:54;;;;;;;;;;;;;;;-142.75;100.00;77003.38;5088410;28;19920;-65
2022/10/26 04:14:19;;;;;;;;;;;;;;;-142.75;100.00;76995.50;5088821;28;20401;-65
2022/10/26 04:16:45;;;;;;;;;;;;;;;-142.75;100.00;76987.63;5088376;28;19916;-66
2022/10/26 04:19:10;;;;;;;;;;;;;;;-142.75;100.00;76987.63;5089589;28;19928;-65
2022/10/26 04:21:35;;;;;;;;;;;;;;;-142.75;100.00;76983.69;5091472;28;19916;-65
2022/10/26 04:24:01;;;;;;;;;;;;;;;-142.75;100.00;76983.69;5093764;28;19923;-65
2022/10/26 04:26:26;;;;;;;;;;;;;;;-142.75;100.00;76979.75;5094098;28;19916;-65
2022/10/26 04:28:51;;;;;;;;;;;;;;;-142.75;100.00;76979.75;5093812;28;20010;-65
2022/10/26 04:31:16;;;;;;;;;;;;;;;-142.75;100.00;76975.81;5093973;28;20297;-65
2022/10/26 04:33:42;;;;;;;;;;;;;;;-142.75;100.00;76967.94;5075793;28;19916;-65
2022/10/26 04:36:07;;;;;;;;;;;;;;;-142.75;100.00;76971.88;5093955;28;19916;-65
2022/10/26 04:38:32;;;;;;;;;;;;;;;-142.75;100.00;76969.91;5093668;28;19924;-65
2022/10/26 04:40:57;;;;;;;;;;;;;;;-142.75;100.00;76967.94;5093736;28;19931;-65
2022/10/26 04:43:23;;;;;;;;;;;;;;;-142.75;100.00;76964.00;5093792;28;20440;-66
2022/10/26 04:45:48;;;;;;;;;;;;;;;-142.75;100.00;76956.13;5093728;28;19923;-65
2022/10/26 04:48:13;;;;;;;;;;;;;;;-142.75;100.00;76960.06;5093817;28;19916;-65
2022/10/26 04:50:39;;;;;;;;;;;;;;;-142.75;100.00;76960.06;5093311;28;19999;-65
2022/10/26 04:53:05;;;;;;;;;;;;;;;-142.75;100.00;76948.25;5093736;28;20011;-65
2022/10/26 04:55:30;;;;;;;;;;;;;;;-142.75;100.00;76956.13;5093693;28;19928;-65
2022/10/26 04:57:55;;;;;;;;;;;;;;;-142.75;100.00;76948.25;5093157;28;19969;-65
2022/10/26 05:00:20;;;;;;;;;;;;;;;-142.75;100.00;76948.25;5093493;28;19916;-65
2022/10/26 05:02:45;;;;;;;;;;;;;;;-142.75;100.00;76944.31;5093460;28;19963;-65
2022/10/26 05:05:11;;;;;;;;;;;;;;;-142.75;100.00;76944.31;5093392;28;19948;-65
2022/10/26 05:07:36;;;;;;;;;;;;;;;-142.75;100.00;76938.41;5093025;28;19969;-65
2022/10/26 05:10:01;;;;;;;;;;;;;;;-142.75;100.00;76938.41;5093301;28;19920;-66
2022/10/26 05:12:26;;;;;;;;;;;;;;;-142.75;100.00;76948.25;5093231;28;19916;-65
2022/10/26 05:14:51;;;;;;;;;;;;;;;-142.75;100.00;76944.31;5093427;28;19916;-65
2022/10/26 05:17:17;;;;;;;;;;;;;;;-142.75;100.00;76942.34;5093828;28;19920;-65
2022/10/26 05:19:42;;;;;;;;;;;;;;;-142.75;100.00;76944.31;5093079;28;19916;-65
2022/10/26 05:22:07;;;;;;;;;;;;;;;-142.75;100.00;76948.25;5075005;28;20351;-65
2022/10/26 05:24:32;;;;;;;;;;;;;;;-142.75;100.00;76940.38;5093116;28;19928;-65
2022/10/26 05:26:58;;;;;;;;;;;;;;;-142.75;100.00;76944.31;5092630;28;20007;-65
2022/10/26 05:29:23;;;;;;;;;;;;;;;-142.75;100.00;76950.22;5092860;28;19916;-65
2022/10/26 05:31:48;;;;;;;;;;;;;;;-142.75;100.00;76948.25;5091975;28;19920;-65
2022/10/26 05:34:13;;;;;;;;;;;;;;;-142.75;100.00;76944.31;5092765;28;19916;-65
2022/10/26 05:36:38;;;;;;;;;;;;;;;-142.75;100.00;76938.41;5092510;28;20392;-65
2022/10/26 05:39:03;;;;;;;;;;;;;;;-142.75;100.00;76942.34;5092741;28;19916;-65
2022/10/26 05:41:29;;;;;;;;;;;;;;;-142.75;100.00;76950.22;5092680;28;19916;-65
2022/10/26 05:43:54;;;;;;;;;;;;;;;-142.75;100.00;76950.22;5074444;28;19961;-65
2022/10/26 05:46:19;;;;;;;;;;;;;;;-142.75;100.00;76944.31;5092738;28;19920;-65
2022/10/26 05:48:44;;;;;;;;;;;;;;;-142.75;100.00;76944.31;5092271;28;19916;-65
2022/10/26 05:51:11;;;;;;;;;;;;;;;-142.75;100.00;76936.44;5092266;28;19927;-65
2022/10/26 05:53:36;;;;;;;;;;;;;;;-142.75;100.00;76932.50;5092508;28;19924;-65
2022/10/26 05:56:01;;;;;;;;;;;;;;;-142.75;100.00;76930.53;5092465;28;19916;-65
2022/10/26 05:58:27;;;;;;;;;;;;;;;-142.75;100.00;76920.69;5092027;28;19922;-66
2022/10/26 06:01:10;;;;;;;;;;;;;;;-142.75;100.00;76934.47;5092142;28;19952;-65
2022/10/26 06:03:41;;;;;;;;;;;;;;;-142.75;100.00;76938.41;5092341;28;20321;-66
2022/10/26 06:06:10;;;;;;;;;;;;;;;-142.75;100.00;76926.59;5092216;28;19916;-65
2022/10/26 06:08:35;;;;;;;;;;;;;;;-142.75;100.00;76922.66;5091861;28;19970;-65
2022/10/26 06:11:01;;;;;;;;;;;;;;;-142.75;100.00;76916.75;5091932;28;20343;-66
2022/10/26 06:13:27;;;;;;;;;;;;;;;-142.75;100.00;76916.75;5092041;28;19924;-65
2022/10/26 06:16:01;;;;;;;;;;;;;;;-142.75;100.00;76918.72;5092041;28;19916;-65
2022/10/26 06:18:44;;;;;;;;;;;;;;;-142.75;100.00;76920.69;5091706;28;20270;-65
2022/10/26 06:21:12;;;;;;;;;;;;;;;-142.75;100.00;76910.84;5091803;28;19923;-65
2022/10/26 06:23:38;;;;;;;;;;;;;;;-142.75;100.00;76910.84;5091986;28;19920;-66
2022/10/26 06:26:12;;;;;;;;;;;;;;;-142.75;100.00;76912.81;5091821;28;20354;-65
2022/10/26 06:28:40;;;;;;;;;;;;;;;-142.75;100.00;76914.78;5091675;28;19923;-65
2022/10/26 06:31:05;;;;;;;;;;;;;;;-142.75;100.00;76916.75;5091590;28;20001;-66
2022/10/26 06:33:31;;;;;;;;;;;;;;;-142.75;100.00;76906.91;5091695;28;20023;-66
2022/10/26 06:36:02;;;;;;;;;;;;;;;-142.75;100.00;76910.84;5091667;28;20023;-66
2022/10/26 06:38:27;;;;;;;;;;;;;;;-142.75;100.00;76918.72;5091342;28;19924;-66
2022/10/26 06:40:54;;;;;;;;;;;;;;;-142.75;100.00;76922.66;5091594;28;19916;-66
2022/10/26 06:43:25;;;;;;;;;;;;;;;-142.75;100.00;76916.75;5073099;28;19922;-65
2022/10/26 06:45:55;;;;;;;;;;;;;;;-142.75;100.00;76904.94;5091666;28;19935;-65
2022/10/26 06:48:24;;;;;;;;;;;;;;;-142.75;100.00;76904.94;5091125;28;20427;-66
2022/10/26 06:50:52;;;;;;;;;;;;;;;-142.75;100.00;76924.63;5109006;22;20571;-67
2022/10/26 06:53:22;;;;;;;;;;;;;;;-142.75;100.00;76932.50;5088679;28;19963;-67
2022/10/26 06:55:49;;;;;;;;;;;;;;;-142.75;100.00;76928.56;5090566;28;19977;-67
2022/10/26 06:58:18;;;;;;;;;;;;;;;-142.75;100.00;76928.56;5073031;28;19973;-67
2022/10/26 07:00:45;;;;;;;;;;;;;;;-142.75;100.00;76932.50;5091298;28;19923;-67
2022/10/26 07:03:10;;;;;;;;;;;;;;;-142.75;100.00;76934.47;5073097;28;20019;-67
2022/10/26 07:05:35;;;;;;;;;;;;;;;-142.75;100.00;76936.44;5091386;28;20015;-67
2022/10/26 07:08:00;;;;;;;;;;;;;;;-142.75;100.00;76940.38;5090985;28;19916;-67
2022/10/26 07:10:25;;;;;;;;;;;;;;;-142.75;100.00;76916.75;5064652;28;20627;-66
2022/10/26 07:12:50;;;;;;;;;;;;;;;-142.75;100.00;76899.03;5063674;28;19924;-67
2022/10/26 07:15:16;;;;;;;;;;;;;;;-142.75;100.00;76865.56;5064396;28;19924;-65
2022/10/26 07:17:42;;;;;;;;;;;;;;;-142.75;100.00;76843.91;5058761;28;20508;-65
2022/10/26 07:20:08;;;;;;;;;;;;;;;-142.75;100.00;76812.41;5042491;28;20011;-65
2022/10/26 07:22:33;;;;;;;;;;;;;;;-142.75;100.00;76778.97;5070641;28;20010;-64
2022/10/26 07:24:58;;;;;;;;;;;;;;;-142.75;100.00;76749.44;5060396;28;19916;-65
2022/10/26 07:27:23;;;;;;;;;;;;;;;-142.75;100.00;76700.22;5078399;28;19959;-67
2022/10/26 07:29:48;;;;;;;;;;;;;;;-142.75;100.00;76641.16;5080765;28;19928;-67
2022/10/26 07:32:14;;;;;;;;;;;;;;;-142.75;100.00;76605.72;5064174;28;19916;-66
2022/10/26 07:34:39;;;;;;;;;;;;;;;-142.75;100.00;76556.50;5070257;28;19920;-67
2022/10/26 07:37:04;;;;;;;;;;;;;;;-142.75;100.00;76515.19;5064307;28;20455;-68
2022/10/26 07:39:31;;;;;;;;;;;;;;;-142.75;100.00;76475.81;5051461;28;20373;-68
2022/10/26 07:41:56;;;;;;;;;;;;;;;-142.75;100.00;76491.56;5062828;28;19938;-67
2022/10/26 07:44:22;;;;;;;;;;;;;;;-142.75;100.00;76456.13;5069486;28;19917;-67
2022/10/26 07:46:47;;;;;;;;;;;;;;;-142.75;100.00;76448.25;5067972;28;19931;-65
2022/10/26 07:49:12;;;;;;;;;;;;;;;-142.75;100.00;76473.84;5068283;28;19916;-67
2022/10/26 07:51:37;;;;;;;;;;;;;;;-142.75;100.00;76452.19;5075335;28;19920;-67
2022/10/26 07:54:02;;;;;;;;;;;;;;;-142.75;100.00;76487.63;5067415;28;19995;-66
2022/10/26 07:56:28;;;;;;;;;;;;;;;-142.75;100.00;76519.13;5083846;28;19931;-65
2022/10/26 07:58:54;;;;;;;;;;;;;;;-142.75;100.00;76487.63;5080577;28;20022;-67
2022/10/26 08:01:19;;;;;;;;;;;;;;;-142.75;100.00;76473.84;5066661;28;19969;-67
2022/10/26 08:03:45;;;;;;;;;;;;;;;-142.75;100.00;76485.66;5079328;28;19928;-66
2022/10/26 08:06:10;;;;;;;;;;;;;;;-142.75;100.00;76448.25;5062331;28;19943;-65
2022/10/26 08:08:35;;;;;;;;;;;;;;;-142.75;100.00;76471.88;5054207;28;20341;-66
2022/10/26 08:11:00;;;;;;;;;;;;;;;-142.75;100.00;76452.19;5057047;28;19921;-67
2022/10/26 08:13:26;;;;;;;;;;;;;;;-142.75;100.00;76426.59;5058843;28;20404;-67
2022/10/26 08:15:58;;;;;;;;;;;;;;;-142.75;100.00;76442.34;5072451;28;19921;-68
2022/10/26 08:18:23;;;;;;;;;;;;;;;-142.75;100.00;76426.59;5070611;28;19916;-65
2022/10/26 08:20:48;;;;;;;;;;;;;;;-142.75;100.00;76385.25;5050002;28;19978;-66
2022/10/26 08:23:13;;;;;;;;;;;;;;;-142.75;100.00;76410.84;5066827;28;19930;-67
2022/10/26 08:25:38;;;;;;;;;;;;;;;-142.75;100.00;76401.00;5068527;28;20386;-67
2022/10/26 08:28:04;;;;;;;;;;;;;;;-142.75;100.00;76408.88;5074191;28;19928;-66
2022/10/26 08:30:29;;;;;;;;;;;;;;;-142.75;100.00;76373.44;5071208;28;19925;-66
2022/10/26 08:32:59;;;;;;;;;;;;;;;-142.75;100.00;76332.13;5069990;28;20352;-67
2022/10/26 08:35:24;;;;;;;;;;;;;;;-142.75;100.00;76334.09;5070198;28;19970;-66
2022/10/26 08:37:50;;;;;;;;;;;;;;;-142.75;100.00;76340.00;5082080;28;19920;-66
2022/10/26 08:40:16;;;;;;;;;;;;;;;-142.75;100.00;76330.16;5093869;28;20339;-66
2022/10/26 08:42:47;;;;;;;;;;;;;;;-142.75;100.00;76330.16;5064991;28;19916;-68
2022/10/26 08:45:25;;;;;;;;;;;;;;;-142.75;100.00;76294.72;5073524;28;20393;-67
2022/10/26 08:47:52;;;;;;;;;;;;;;;-142.75;100.00;76275.03;5073389;28;20003;-68
2022/10/26 08:50:31;;;;;;;;;;;;;;;-142.75;100.00;76247.47;5075945;28;19924;-68
2022/10/26 08:53:02;;;;;;;;;;;;;;;-142.75;100.00;76217.94;5083101;28;19916;-67
2022/10/26 08:55:31;;;;;;;;;;;;;;;-142.75;100.00;76184.50;5073397;28;19954;-68
2022/10/26 08:58:00;;;;;;;;;;;;;;;-142.75;100.00;76225.81;5055196;28;19916;-68
2022/10/26 09:00:26;;;;;;;;;;;;;;;-142.75;100.00;76223.84;5073117;28;19952;-68
2022/10/26 09:02:52;;;;;;;;;;;;;;;-142.75;100.00;76212.03;5073431;28;19917;-67
2022/10/26 09:05:22;;;;;;;;;;;;;;;-142.75;100.00;76243.53;5055380;28;19924;-67
2022/10/26 09:07:50;;;;;;;;;;;;;;;-142.75;100.00;76239.59;5054774;28;19923;-68
2022/10/26 09:10:37;;;;;;;;;;;;;;;-142.75;100.00;76259.28;5073015;28;19920;-68
2022/10/26 09:13:05;;;;;;;;;;;;;;;-142.75;100.00;76278.97;5073144;28;19923;-66
2022/10/26 09:15:36;;;;;;;;;;;;;;;-142.75;100.00;76265.19;5072937;28;19928;-68
2022/10/26 09:18:14;;;;;;;;;;;;;;;-142.75;100.00;76223.84;5072775;28;19916;-69
2022/10/26 09:20:47;;;;;;;;;;;;;;;-142.75;100.00;76194.34;5072724;28;19920;-68
2022/10/26 09:23:31;;;;;;;;;;;;;;;-142.75;100.00;76196.31;5054952;28;19924;-68
2022/10/26 09:25:57;;;;;;;;;;;;;;;-142.75;100.00;76178.59;5072316;28;19960;-68
2022/10/26 09:28:23;;;;;;;;;;;;;;;-142.75;100.00;76164.81;5073443;28;19924;-68
2022/10/26 09:30:49;;;;;;;;;;;;;;;-142.75;100.00;76119.53;5075610;28;19920;-69
2022/10/26 09:33:15;;;;;;;;;;;;;;;-142.75;100.00;76105.75;5073198;28;19923;-68
2022/10/26 09:35:40;;;;;;;;;;;;;;;-142.75;100.00;76066.41;5075599;28;19924;-69
2022/10/26 09:38:13;;;;;;;;;;;;;;;-142.75;100.00;76029.00;5081704;28;19916;-68
2022/10/26 09:40:47;;;;;;;;;;;;;;;-142.75;100.00;76025.06;5080854;28;19916;-68
2022/10/26 09:43:17;;;;;;;;;;;;;;;-142.75;100.00;76005.38;5076885;28;19955;-69
2022/10/26 09:45:47;;;;;;;;;;;;;;;-142.75;100.00;76023.09;5092918;28;20278;-68
2022/10/26 09:48:22;;;;;;;;;;;;;;;-142.75;100.00;76005.38;5062056;28;19924;-68
2022/10/26 09:50:48;;;;;;;;;;;;;;;-142.75;100.00;75934.53;5077382;28;19924;-69
2022/10/26 09:53:13;;;;;;;;;;;;;;;-142.75;100.00;75971.91;5075341;28;20302;-68
2022/10/26 09:55:41;;;;;;;;;;;;;;;-142.75;100.00;76003.41;5075353;28;19920;-68
2022/10/26 09:58:11;;;;;;;;;;;;;;;-142.75;100.00;76021.13;5075724;28;19916;-68
2022/10/26 10:00:37;;;;;;;;;;;;;;;-142.75;100.00;76088.03;5070922;28;20300;-67
2022/10/26 10:03:15;;;;;;;;;;;;;;;-142.75;100.00;76111.66;5058250;28;19916;-68
2022/10/26 10:05:40;;;;;;;;;;;;;;;-142.75;100.00;76113.63;5078537;28;19924;-67
2022/10/26 10:08:09;;;;;;;;;;;;;;;-142.75;100.00;76105.75;5080949;28;20332;-69
2022/10/26 10:10:34;;;;;;;;;;;;;;;-142.75;100.00;76151.03;5076509;28;19927;-69
2022/10/26 10:13:13;;;;;;;;;;;;;;;-142.75;100.00;76156.94;5077567;28;19994;-68
2022/10/26 10:15:38;;;;;;;;;;;;;;;-142.75;100.00;76214.00;5056676;28;19916;-68
2022/10/26 10:18:03;;;;;;;;;;;;;;;-142.75;100.00;76231.72;5074442;28;19962;-69
2022/10/26 10:20:32;;;;;;;;;;;;;;;-142.75;100.00;76259.28;5055925;28;19925;-67
2022/10/26 10:22:58;;;;;;;;;;;;;;;-142.75;100.00;76282.91;5073034;28;19916;-67
2022/10/26 10:25:37;;;;;;;;;;;;;;;-142.75;100.00;76336.06;5072937;28;19915;-69
2022/10/26 10:28:22;;;;;;;;;;;;;;;-142.75;100.00;76361.63;5079573;28;20004;-68
2022/10/26 10:30:52;;;;;;;;;;;;;;;-142.75;100.00;76383.28;5076048;28;19920;-68
2022/10/26 10:33:17;;;;;;;;;;;;;;;-142.75;100.00;76432.50;5079538;28;19920;-68
2022/10/26 10:35:48;;;;;;;;;;;;;;;-142.75;100.00;76412.81;5080106;28;19919;-69
2022/10/26 10:38:19;;;;;;;;;;;;;;;-142.75;100.00;76412.81;5074736;28;20340;-68
2022/10/26 10:40:52;;;;;;;;;;;;;;;-142.75;100.00;76406.91;5075715;28;19916;-68
2022/10/26 10:43:18;;;;;;;;;;;;;;;-142.75;100.00;76397.06;5073949;28;19920;-68
2022/10/26 10:45:48;;;;;;;;;;;;;;;-142.75;100.00;76393.13;5052857;28;19917;-68
2022/10/26 10:48:16;;;;;;;;;;;;;;;-142.75;100.00;76389.19;5076137;28;19923;-68
2022/10/26 10:50:56;;;;;;;;;;;;;;;-142.75;100.00;76341.97;5079284;28;20386;-70
2022/10/26 10:53:25;;;;;;;;;;;;;;;-142.75;100.00;76286.84;5083757;28;19917;-69
2022/10/26 10:56:04;;;;;;;;;;;;;;;-142.75;100.00;76202.19;5083794;28;19916;-68
2022/10/26 10:58:36;;;;;;;;;;;;;;;-142.75;100.00;76127.41;5091202;28;20002;-68
2022/10/26 11:01:02;;;;;;;;;;;;;;;-142.75;100.00;76058.53;5079210;28;19916;-69
2022/10/26 11:03:33;;;;;;;;;;;;;;;-142.75;100.00;76062.47;5070572;28;20344;-69
2022/10/26 11:06:26;;;;;;;;;;;;;;;-142.75;100.00;76086.06;5053075;28;19924;-70
2022/10/26 11:08:51;;;;;;;;;;;;;;;-142.75;100.00;76121.50;5048907;28;19934;-69
2022/10/26 11:11:24;;;;;;;;;;;;;;;-142.75;100.00;76117.56;5081641;28;20278;-69
2022/10/26 11:13:55;;;;;;;;;;;;;;;-142.75;100.00;76145.13;5091350;28;20425;-69
2022/10/26 11:16:24;;;;;;;;;;;;;;;-142.75;100.00;76153.00;5073123;28;19916;-68
2022/10/26 11:18:59;;;;;;;;;;;;;;;-142.75;100.00;76137.25;5090954;28;20397;-69
2022/10/26 11:21:27;;;;;;;;;;;;;;;-142.75;100.00;76176.63;5090996;28;19989;-69
2022/10/26 11:23:56;;;;;;;;;;;;;;;-142.75;100.00;76192.38;5091271;28;19916;-69
2022/10/26 11:26:26;;;;;;;;;;;;;;;-142.75;100.00;76168.75;5091066;28;19916;-69
2022/10/26 11:28:57;;;;;;;;;;;;;;;-142.75;100.00;76154.97;5089187;28;19992;-68
2022/10/26 11:31:25;;;;;;;;;;;;;;;-142.75;100.00;76160.88;5074828;28;19920;-69
2022/10/26 11:34:09;;;;;;;;;;;;;;;-142.75;100.00;76149.06;5074944;28;19935;-70
2022/10/26 11:36:35;;;;;;;;;;;;;;;-142.75;100.00;76172.69;5077756;28;19917;-67
2022/10/26 11:39:10;;;;;;;;;;;;;;;-142.75;100.00;76137.25;5072868;28;20275;-70
2022/10/26 11:41:38;;;;;;;;;;;;;;;-142.75;100.00;76127.41;5066006;28;19995;-69
2022/10/26 11:44:22;;;;;;;;;;;;;;;-142.75;100.00;76103.78;5081620;28;19916;-69
2022/10/26 11:46:50;;;;;;;;;;;;;;;-142.75;100.00;76070.34;5093239;28;19924;-69
2022/10/26 11:49:26;;;;;;;;;;;;;;;-142.75;100.00;76131.34;5057485;28;19919;-69
2022/10/26 11:51:58;;;;;;;;;;;;;;;-142.75;100.00;76147.09;5060601;28;19920;-70
2022/10/26 11:54:26;;;;;;;;;;;;;;;-142.75;100.00;76137.25;5071050;28;20481;-67
2022/10/26 11:56:53;;;;;;;;;;;;;;;-142.75;100.00;76111.66;5060407;28;20015;-68
2022/10/26 11:59:20;;;;;;;;;;;;;;;-142.75;100.00;76068.38;5085549;28;19920;-69
2022/10/26 12:02:00;;;;;;;;;;;;;;;-142.75;100.00;76101.81;5082987;28;19938;-68
2022/10/26 12:04:28;;;;;;;;;;;;;;;-142.75;100.00;76137.25;5077291;28;19924;-68
2022/10/26 12:06:54;;;;;;;;;;;;;;;-142.75;100.00;76188.44;5079965;28;20382;-68
2022/10/26 12:09:22;;;;;;;;;;;;;;;-142.75;100.00;76147.09;5079458;28;20022;-69
2022/10/26 12:11:48;;;;;;;;;;;;;;;-142.75;100.00;76050.66;5080568;28;19924;-68
2022/10/26 12:14:20;;;;;;;;;;;;;;;-142.75;100.00;76066.41;5073485;28;19917;-69
2022/10/26 12:16:50;;;;;;;;;;;;;;;-142.75;100.00;76030.97;5077096;28;19971;-68
2022/10/26 12:19:28;;;;;;;;;;;;;;;-142.75;100.00;76046.72;5057511;28;19917;-69
2022/10/26 12:21:53;;;;;;;;;;;;;;;-142.75;100.00;75987.66;5065515;28;19990;-68
2022/10/26 12:24:25;;;;;;;;;;;;;;;-142.75;100.00;76007.34;5063693;28;20378;-69